Terminal Aerodrome Forecast
Issued by NWS Charleston, WV

Current Version | Previous Version | Graphics & Text | Print | Product List | Glossary On
Versions: 1 2 3 4 5 6 7 8 9 10 11 12 13 14 15 16 17 18 19 20 21 22 23 24 25 26
490
FTUS41 KRLX 181501 AAC
TAFCRW
TAF AMD
KCRW 181501Z 1815/1912 22004KT P6SM -SHRA BKN015 OVC040
     FM181700 26008KT P6SM SCT030 BKN040
     FM182000 26007KT P6SM BKN040
     FM190100 26002KT P6SM FEW070
     FM190600 00000KT 4SM BR FEW001
     FM190900 00000KT 1/4SM FG VV001=

USA.gov is the U.S. government's official web portal to all federal, state and local government web resources and services.